Time;durP1;ratioP1;P1;durP2;ratioP2;P2;SDS_P1;SDS_P2;PMS_P1;PMS_P2;Temp;Humidity;BMP_temperature;BMP_pressure;BME280_temperature;BME280_humidity;BME280_pressure;Samples;Min_cycle;Max_cycle;Signal;HPM_P1;HPM_P2
2022/03/26 00:01:34;;;;;;;35.20;26.60;;;10.20;64.40;;;;;;10458192;28;20288;-85
2022/03/26 00:06:36;;;;;;;34.87;26.20;;;10.10;66.30;;;;;;10438966;28;20690;-85
2022/03/26 00:11:39;;;;;;;31.23;25.57;;;10.10;65.70;;;;;;10442915;28;20351;-85
2022/03/26 00:16:41;;;;;;;31.33;24.00;;;10.10;66.40;;;;;;10461733;28;20308;-85
2022/03/26 00:21:45;;;;;;;34.73;28.13;;;10.10;66.30;;;;;;10426121;28;20201;-83
2022/03/26 00:26:48;;;;;;;34.90;25.97;;;10.10;65.80;;;;;;10450104;28;20232;-85
2022/03/26 00:31:50;;;;;;;33.17;26.77;;;10.00;66.30;;;;;;10436507;28;20225;-85
2022/03/26 00:36:52;;;;;;;37.93;27.73;;;10.00;65.90;;;;;;10438702;28;20213;-84
2022/03/26 00:41:57;;;;;;;33.30;25.70;;;9.90;66.90;;;;;;10431515;28;20748;-85
2022/03/26 00:46:59;;;;;;;32.40;25.60;;;9.90;67.50;;;;;;10453792;28;20232;-84
2022/03/26 00:52:01;;;;;;;38.10;26.80;;;9.80;67.10;;;;;;10448535;28;20601;-84
2022/03/26 00:57:05;;;;;;;36.40;27.23;;;9.70;67.10;;;;;;10444586;28;20241;-83
2022/03/26 01:02:07;;;;;;;34.00;27.70;;;9.60;67.60;;;;;;10443329;28;20291;-83
2022/03/26 01:07:09;;;;;;;38.20;27.00;;;9.40;68.80;;;;;;10431516;28;20290;-83
2022/03/26 01:12:13;;;;;;;33.80;28.03;;;9.40;69.00;;;;;;10444754;28;20197;-82
2022/03/26 01:17:15;;;;;;;37.13;27.17;;;9.40;69.30;;;;;;10415713;28;20300;-83
2022/03/26 01:22:17;;;;;;;36.20;27.77;;;9.40;70.20;;;;;;10456234;28;20193;-82
2022/03/26 01:27:21;;;;;;;36.30;27.40;;;9.30;69.60;;;;;;10429267;28;20225;-83
2022/03/26 01:32:23;;;;;;;37.20;26.60;;;9.30;69.90;;;;;;10460886;28;20205;-82
2022/03/26 01:37:25;;;;;;;35.33;26.47;;;9.30;69.60;;;;;;10448379;28;20209;-84
2022/03/26 01:42:28;;;;;;;34.30;26.70;;;9.30;69.60;;;;;;10427308;28;20204;-84
2022/03/26 01:47:30;;;;;;;33.27;26.13;;;9.20;69.20;;;;;;10433481;28;20221;-84
2022/03/26 01:52:33;;;;;;;34.27;26.40;;;9.10;69.20;;;;;;10446176;28;20194;-84
2022/03/26 01:57:37;;;;;;;35.40;27.57;;;9.10;69.20;;;;;;10426207;28;20267;-84
2022/03/26 02:02:43;;;;;;;34.60;27.07;;;9.00;70.20;;;;;;10438205;28;20205;-83
2022/03/26 02:07:48;;;;;;;36.33;28.07;;;9.00;68.90;;;;;;10461563;28;20233;-84
2022/03/26 02:12:51;;;;;;;34.07;26.80;;;8.90;70.00;;;;;;10458843;28;20283;-84
2022/03/26 02:17:53;;;;;;;37.90;28.90;;;8.80;70.70;;;;;;10451338;28;20241;-84
2022/03/26 02:22:57;;;;;;;36.63;28.50;;;8.70;70.40;;;;;;10447827;28;20290;-85
2022/03/26 02:27:59;;;;;;;36.13;25.80;;;8.70;70.20;;;;;;10428550;28;20263;-84
2022/03/26 02:33:01;;;;;;;34.10;25.10;;;8.60;71.30;;;;;;10458778;28;20301;-84
2022/03/26 02:38:05;;;;;;;34.80;27.57;;;8.60;71.00;;;;;;10459577;28;20217;-84
2022/03/26 02:43:07;;;;;;;34.90;27.00;;;8.50;71.80;;;;;;10460818;28;20703;-84
2022/03/26 02:48:12;;;;;;;39.63;27.50;;;8.50;70.40;;;;;;10460044;28;20324;-84
2022/03/26 02:53:16;;;;;;;31.70;25.80;;;8.40;71.20;;;;;;10462521;28;20213;-84
2022/03/26 02:58:18;;;;;;;37.20;27.60;;;8.40;71.20;;;;;;10442899;28;20245;-84
2022/03/26 03:03:20;;;;;;;38.40;28.77;;;8.40;71.00;;;;;;10448390;28;20193;-84
2022/03/26 03:08:24;;;;;;;35.73;28.03;;;8.30;71.00;;;;;;10468455;22;20233;-85
2022/03/26 03:13:26;;;;;;;34.90;28.00;;;8.30;71.40;;;;;;10401214;28;20201;-85
2022/03/26 03:18:28;;;;;;;37.07;28.00;;;8.20;71.20;;;;;;10447530;28;20224;-85
2022/03/26 03:23:32;;;;;;;29.23;21.27;;;8.20;71.50;;;;;;10451534;28;20254;-85
2022/03/26 03:28:34;;;;;;;35.00;27.60;;;8.10;71.20;;;;;;10475168;28;20221;-85
2022/03/26 03:33:36;;;;;;;30.00;24.57;;;8.10;72.60;;;;;;10412088;28;20202;-85
2022/03/26 03:38:40;;;;;;;43.97;27.07;;;8.10;72.20;;;;;;10405165;28;20224;-85
2022/03/26 03:43:42;;;;;;;37.07;27.73;;;8.00;73.30;;;;;;10441768;28;20193;-85
2022/03/26 03:48:44;;;;;;;32.33;26.87;;;8.00;71.90;;;;;;10422972;28;20294;-85
2022/03/26 03:53:47;;;;;;;32.00;25.07;;;8.00;71.80;;;;;;10414588;28;20194;-85
2022/03/26 03:58:50;;;;;;;32.53;25.70;;;7.90;72.40;;;;;;10433886;28;20601;-85
2022/03/26 04:03:52;;;;;;;32.13;26.27;;;7.80;72.10;;;;;;10431061;28;20288;-85
2022/03/26 04:08:55;;;;;;;31.27;24.90;;;7.80;72.50;;;;;;10440124;28;20233;-85
2022/03/26 04:13:57;;;;;;;32.30;26.87;;;7.80;72.70;;;;;;10446556;28;20283;-85
2022/03/26 04:18:59;;;;;;;34.53;25.70;;;7.70;73.40;;;;;;10430521;28;20213;-85
2022/03/26 04:24:03;;;;;;;38.30;27.30;;;7.70;72.90;;;;;;10418644;28;20312;-85
2022/03/26 04:29:05;;;;;;;35.50;26.70;;;7.60;73.10;;;;;;10431613;28;20248;-85
2022/03/26 04:34:07;;;;;;;38.33;27.83;;;7.60;74.50;;;;;;10433005;28;20194;-85
2022/03/26 04:39:11;;;;;;;34.30;25.57;;;7.60;73.00;;;;;;10410125;28;20237;-85
2022/03/26 04:44:13;;;;;;;34.80;25.70;;;7.60;73.10;;;;;;10414180;28;20676;-85
2022/03/26 04:49:15;;;;;;;34.17;24.80;;;7.50;73.10;;;;;;10400495;28;20705;-85
2022/03/26 04:54:18;;;;;;;32.10;25.13;;;7.50;73.10;;;;;;10402610;28;20226;-85
2022/03/26 04:59:21;;;;;;;33.93;24.83;;;7.40;72.80;;;;;;10397456;28;20260;-85
2022/03/26 05:04:23;;;;;;;33.80;26.00;;;7.40;73.20;;;;;;10448221;28;20201;-85
2022/03/26 05:09:26;;;;;;;32.90;26.57;;;7.30;75.00;;;;;;10448763;28;20225;-85
2022/03/26 05:14:28;;;;;;;32.97;25.20;;;7.30;74.50;;;;;;10417976;28;20224;-85
2022/03/26 05:19:30;;;;;;;32.97;26.30;;;7.30;75.10;;;;;;10443013;28;20217;-85
2022/03/26 05:24:34;;;;;;;34.67;26.33;;;7.40;74.10;;;;;;10433127;28;20215;-85
2022/03/26 05:29:36;;;;;;;34.67;26.67;;;7.40;73.60;;;;;;10427411;28;20229;-85
2022/03/26 05:34:38;;;;;;;35.77;26.93;;;7.30;73.90;;;;;;10450848;28;20535;-84
2022/03/26 05:39:41;;;;;;;35.30;26.83;;;7.30;74.60;;;;;;10471106;28;20213;-85
2022/03/26 05:44:43;;;;;;;36.00;27.70;;;7.30;76.30;;;;;;10414881;28;20212;-84
2022/03/26 05:49:45;;;;;;;36.87;28.00;;;7.30;75.70;;;;;;10438305;28;20232;-84
2022/03/26 05:54:49;;;;;;;35.17;27.10;;;7.40;76.00;;;;;;10455913;28;20702;-84
2022/03/26 05:59:51;;;;;;;38.73;26.20;;;7.40;76.20;;;;;;10459447;28;20217;-85
2022/03/26 06:04:53;;;;;;;31.87;24.77;;;7.50;76.30;;;;;;10473464;28;20237;-84
2022/03/26 06:09:57;;;;;;;33.40;24.83;;;7.60;77.10;;;;;;10436779;28;20583;-85
2022/03/26 06:14:59;;;;;;;32.60;27.43;;;7.70;76.40;;;;;;10432700;28;20287;-85
2022/03/26 06:20:01;;;;;;;35.57;27.30;;;7.70;76.60;;;;;;10437770;28;20220;-85
2022/03/26 06:25:05;;;;;;;34.30;27.00;;;7.80;76.90;;;;;;10437426;28;20205;-85
2022/03/26 06:30:10;;;;;;;35.90;26.30;;;7.90;77.50;;;;;;10423070;28;20221;-85
2022/03/26 06:35:12;;;;;;;31.87;26.77;;;8.00;76.30;;;;;;10429238;28;20201;-85
2022/03/26 06:40:15;;;;;;;36.53;26.60;;;8.10;78.00;;;;;;10432483;28;20201;-85
2022/03/26 06:45:18;;;;;;;35.73;27.60;;;8.10;77.60;;;;;;10399409;28;20315;-85
2022/03/26 06:50:20;;;;;;;37.43;27.43;;;8.20;78.40;;;;;;10439855;28;20222;-85
2022/03/26 06:55:24;;;;;;;33.40;26.90;;;8.30;78.50;;;;;;10424928;28;20225;-86
2022/03/26 07:00:26;;;;;;;37.60;28.17;;;8.50;77.10;;;;;;10459115;28;20209;-88
2022/03/26 07:05:29;;;;;;;35.77;26.43;;;8.60;75.90;;;;;;10490947;28;20226;-87
2022/03/26 07:10:33;;;;;;;35.33;28.07;;;8.70;77.20;;;;;;10403843;28;20225;-88
2022/03/26 07:15:35;;;;;;;35.77;28.63;;;8.80;76.00;;;;;;10469197;28;20237;-84
2022/03/26 07:20:37;;;;;;;39.30;27.47;;;9.00;75.80;;;;;;10413604;28;20205;-87
2022/03/26 07:25:41;;;;;;;35.10;27.50;;;9.10;75.50;;;;;;10384122;28;20267;-86
2022/03/26 07:30:43;;;;;;;35.07;25.63;;;9.30;75.30;;;;;;10440885;28;20622;-84
2022/03/26 07:35:45;;;;;;;32.20;25.53;;;9.40;74.10;;;;;;10388436;28;20253;-84
2022/03/26 07:40:49;;;;;;;34.83;25.00;;;9.60;74.10;;;;;;10434551;28;20213;-85
2022/03/26 07:45:51;;;;;;;36.40;26.30;;;9.70;74.20;;;;;;10424086;28;20708;-86
2022/03/26 07:50:54;;;;;;;36.07;27.77;;;9.80;74.00;;;;;;10404373;28;20201;-85
2022/03/26 07:55:58;;;;;;;31.90;25.63;;;10.00;72.10;;;;;;10448203;28;20224;-85
2022/03/26 08:01:00;;;;;;;32.40;25.50;;;10.20;73.60;;;;;;10398778;28;20197;-85
2022/03/26 08:06:03;;;;;;;31.30;23.83;;;10.50;73.00;;;;;;10425779;28;20231;-88
2022/03/26 08:11:06;;;;;;;34.57;27.07;;;10.80;70.50;;;;;;10417647;28;20189;-84
2022/03/26 08:16:08;;;;;;;36.60;25.33;;;11.10;71.20;;;;;;10416577;28;20279;-87
2022/03/26 08:21:11;;;;;;;32.53;25.47;;;11.30;68.00;;;;;;10396697;28;20289;-86
2022/03/26 08:26:22;;;;;;;33.00;25.53;;;11.50;69.10;;;;;;10420780;28;20239;-86
2022/03/26 08:31:27;;;;;;;35.83;26.30;;;11.70;69.60;;;;;;10389995;28;20212;-85
2022/03/26 08:36:30;;;;;;;33.30;26.10;;;11.90;68.00;;;;;;10399173;28;20221;-86
2022/03/26 08:41:34;;;;;;;36.70;27.20;;;12.10;67.80;;;;;;10417427;28;20206;-86
2022/03/26 08:46:36;;;;;;;37.50;26.50;;;12.30;68.10;;;;;;10417277;28;20222;-86
2022/03/26 08:51:38;;;;;;;33.83;26.43;;;12.50;66.30;;;;;;10407036;28;20197;-85
2022/03/26 08:56:42;;;;;;;36.90;26.27;;;12.60;66.60;;;;;;10401563;28;20213;-85
2022/03/26 09:01:44;;;;;;;29.20;22.77;;;12.80;67.30;;;;;;10407219;28;20202;-85
2022/03/26 09:06:46;;;;;;;33.53;25.40;;;12.90;65.10;;;;;;10467838;22;20596;-88
2022/03/26 09:11:50;;;;;;;30.37;23.70;;;13.10;64.70;;;;;;10463355;28;20197;-87
2022/03/26 09:16:52;;;;;;;30.67;23.70;;;13.20;63.90;;;;;;10472477;28;20239;-88
2022/03/26 09:21:56;;;;;;;30.40;24.97;;;13.40;64.40;;;;;;10506740;28;20200;-86
2022/03/26 09:27:02;;;;;;;29.60;23.67;;;13.70;60.00;;;;;;10500673;28;20216;-86
2022/03/26 09:32:05;;;;;;;31.77;24.60;;;13.80;61.60;;;;;;10475183;28;20196;-86
2022/03/26 09:37:08;;;;;;;30.90;25.03;;;14.00;60.10;;;;;;10465184;28;20582;-86
2022/03/26 09:42:12;;;;;;;34.90;24.30;;;14.30;60.20;;;;;;10496175;28;20675;-86
2022/03/26 09:47:14;;;;;;;30.10;23.53;;;14.60;60.60;;;;;;10483842;28;20649;-86
2022/03/26 09:52:28;;;;;;;34.33;25.77;;;14.80;58.40;;;;;;10472420;28;20209;-86
2022/03/26 09:57:32;;;;;;;33.53;24.77;;;15.10;59.90;;;;;;10470444;28;20572;-86
2022/03/26 10:02:34;;;;;;;32.17;24.77;;;15.30;60.90;;;;;;10488474;28;20274;-86
2022/03/26 10:07:36;;;;;;;32.27;23.10;;;15.60;59.60;;;;;;10473455;28;20553;-86
2022/03/26 10:12:43;;;;;;;31.83;23.10;;;15.80;59.90;;;;;;10467662;28;20704;-86
2022/03/26 10:17:46;;;;;;;32.63;22.30;;;16.00;59.40;;;;;;10473112;28;20221;-86
2022/03/26 10:22:49;;;;;;;31.10;25.00;;;15.90;59.90;;;;;;10478340;28;20200;-86
2022/03/26 10:27:55;;;;;;;35.43;27.40;;;15.60;59.90;;;;;;10484023;28;21027;-86
2022/03/26 10:32:57;;;;;;;39.80;28.57;;;15.40;58.90;;;;;;10484188;28;20660;-86
2022/03/26 10:38:01;;;;;;;37.00;25.17;;;15.30;58.40;;;;;;10503544;28;20258;-86
2022/03/26 10:43:11;;;;;;;37.33;26.40;;;15.10;57.90;;;;;;10463669;28;20204;-87
2022/03/26 10:48:13;;;;;;;36.53;26.50;;;15.00;59.40;;;;;;10496593;28;20269;-87
2022/03/26 10:53:15;;;;;;;32.10;24.90;;;15.10;58.20;;;;;;10489503;28;20199;-87
2022/03/26 10:58:21;;;;;;;39.00;23.43;;;15.10;57.30;;;;;;10477234;28;20224;-87
2022/03/26 11:03:23;;;;;;;35.27;24.93;;;15.00;59.10;;;;;;10493531;28;20208;-87
2022/03/26 11:08:30;;;;;;;31.57;23.50;;;15.10;55.80;;;;;;10480036;28;20239;-86
2022/03/26 11:13:35;;;;;;;29.47;22.27;;;15.10;55.00;;;;;;10462640;28;20308;-86
2022/03/26 11:18:56;;;;;;;29.17;22.90;;;15.20;56.20;;;;;;10457822;28;20220;-86
2022/03/26 11:24:24;;;;;;;30.00;22.77;;;15.20;55.40;;;;;;10471532;28;20537;-86
2022/03/26 11:29:46;;;;;;;32.13;22.30;;;15.20;55.20;;;;;;10468867;28;20223;-86
2022/03/26 11:34:57;;;;;;;25.63;20.83;;;15.20;55.30;;;;;;10507651;28;20216;-85
2022/03/26 11:39:59;;;;;;;30.30;22.27;;;15.20;57.50;;;;;;10477404;28;20212;-86
2022/03/26 11:50:42;;;;;;;27.87;21.53;;;15.20;54.50;;;;;;10466365;28;20212;-86
2022/03/26 11:55:47;;;;;;;26.50;20.00;;;15.30;55.60;;;;;;10488249;28;20303;-86
2022/03/26 12:00:56;;;;;;;21.10;17.37;;;15.30;52.70;;;;;;10487384;28;20197;-86
2022/03/26 12:11:23;;;;;;;24.60;19.07;;;15.50;52.50;;;;;;10499661;28;20311;-87
2022/03/26 12:16:53;;;;;;;27.80;20.27;;;15.60;52.70;;;;;;10469166;28;20217;-87
2022/03/26 12:21:59;;;;;;;22.50;17.37;;;15.80;50.60;;;;;;10471488;28;20260;-87
2022/03/26 12:27:01;;;;;;;21.27;17.60;;;15.80;52.00;;;;;;10469648;28;20215;-86
2022/03/26 12:32:05;;;;;;;18.73;15.57;;;15.90;52.10;;;;;;10463825;28;20193;-87
2022/03/26 12:37:09;;;;;;;19.00;15.77;;;15.80;50.60;;;;;;10490612;28;20213;-86
2022/03/26 12:42:11;;;;;;;23.23;16.20;;;15.80;50.40;;;;;;10465931;28;20199;-87
2022/03/26 12:47:19;;;;;;;21.40;15.67;;;16.00;48.30;;;;;;10457330;28;20262;-87
2022/03/26 12:52:23;;;;;;;21.13;15.10;;;15.90;50.20;;;;;;10459995;28;20200;-86
2022/03/26 12:58:56;;;;;;;18.40;14.30;;;15.90;47.60;;;;;;10452159;28;20209;-85
2022/03/26 13:03:00;;;;;;;18.97;14.27;;;16.00;48.50;;;;;;10477461;28;20192;-87
2022/03/26 13:08:03;;;;;;;17.40;14.33;;;16.00;48.80;;;;;;10489042;28;20224;-86
2022/03/26 13:13:06;;;;;;;16.87;13.20;;;16.00;51.50;;;;;;10465955;28;20262;-86
2022/03/26 13:18:11;;;;;;;19.97;13.80;;;16.10;49.00;;;;;;10480913;28;20239;-86
2022/03/26 13:23:13;;;;;;;21.13;15.00;;;16.10;47.50;;;;;;10480068;28;20546;-86
2022/03/26 13:28:17;;;;;;;17.60;14.70;;;16.20;46.00;;;;;;10530145;28;20306;-87
2022/03/26 13:33:23;;;;;;;17.30;13.93;;;16.20;47.50;;;;;;10504264;28;20223;-87
2022/03/26 13:38:28;;;;;;;14.83;12.23;;;16.40;46.70;;;;;;10495751;28;20215;-87
2022/03/26 13:43:31;;;;;;;15.00;12.80;;;16.20;46.70;;;;;;10481172;28;20192;-87
2022/03/26 13:48:49;;;;;;;15.67;12.73;;;16.20;48.90;;;;;;10483566;28;20220;-87
2022/03/26 13:53:52;;;;;;;18.23;13.30;;;16.10;48.20;;;;;;10459803;28;20295;-86
2022/03/26 13:58:55;;;;;;;20.73;13.83;;;16.10;47.70;;;;;;10470274;28;20704;-86
2022/03/26 14:03:58;;;;;;;16.13;13.20;;;16.20;48.40;;;;;;10463990;28;20748;-87
2022/03/26 14:09:02;;;;;;;19.57;14.20;;;16.20;49.70;;;;;;10462815;28;20285;-87
2022/03/26 14:14:05;;;;;;;19.87;14.23;;;16.30;47.80;;;;;;10458599;28;20200;-87
2022/03/26 14:19:08;;;;;;;21.27;15.10;;;16.40;47.80;;;;;;10464329;28;20278;-87
2022/03/26 14:24:10;;;;;;;14.57;12.20;;;16.40;48.30;;;;;;10471751;28;20207;-87
2022/03/26 14:29:13;;;;;;;15.00;12.70;;;16.30;50.00;;;;;;10488957;28;20220;-87
2022/03/26 14:34:16;;;;;;;15.27;12.70;;;16.20;49.90;;;;;;10471368;28;20203;-87
2022/03/26 14:39:19;;;;;;;16.10;13.07;;;16.20;49.10;;;;;;10464066;28;20224;-87
2022/03/26 14:44:21;;;;;;;17.47;12.73;;;16.30;49.40;;;;;;10465597;28;20211;-87
2022/03/26 14:49:26;;;;;;;16.10;14.00;;;16.40;48.80;;;;;;10470514;28;20232;-87
2022/03/26 14:54:29;;;;;;;15.73;12.50;;;16.40;48.30;;;;;;10511068;28;20197;-87
2022/03/26 14:59:32;;;;;;;15.23;12.20;;;16.40;49.50;;;;;;10486638;28;20216;-87
2022/03/26 15:04:35;;;;;;;15.83;12.77;;;16.50;47.10;;;;;;10450218;28;20201;-87
2022/03/26 15:09:38;;;;;;;14.70;11.53;;;16.70;46.80;;;;;;10464083;28;20220;-85
2022/03/26 15:14:40;;;;;;;18.23;13.10;;;16.80;46.40;;;;;;10471098;28;20241;-84
2022/03/26 15:19:44;;;;;;;15.80;12.40;;;16.90;45.00;;;;;;10455027;28;20221;-85
2022/03/26 15:24:46;;;;;;;18.90;11.10;;;17.00;44.80;;;;;;10469293;28;20634;-85
2022/03/26 15:29:50;;;;;;;13.97;11.80;;;17.00;45.50;;;;;;10480651;28;20216;-84
2022/03/26 15:34:53;;;;;;;15.63;11.30;;;16.90;47.20;;;;;;10500648;28;20253;-84
2022/03/26 15:39:55;;;;;;;17.37;12.30;;;16.80;47.00;;;;;;10507107;28;20284;-85
2022/03/26 15:44:57;;;;;;;15.30;12.43;;;16.80;48.50;;;;;;10477787;28;20211;-85
2022/03/26 15:50:01;;;;;;;17.17;11.70;;;16.70;45.60;;;;;;10486709;28;20228;-85
2022/03/26 15:55:03;;;;;;;15.43;12.60;;;16.60;49.30;;;;;;10470127;28;20196;-84
2022/03/26 16:00:07;;;;;;;13.83;11.17;;;16.50;47.40;;;;;;10493930;28;20220;-84
2022/03/26 16:05:15;;;;;;;14.67;12.23;;;16.60;46.80;;;;;;10485987;28;20577;-83
2022/03/26 16:10:18;;;;;;;13.77;11.63;;;16.50;48.20;;;;;;10463666;28;20286;-84
2022/03/26 16:15:20;;;;;;;13.53;10.43;;;16.50;50.20;;;;;;10463448;28;20238;-84
2022/03/26 16:20:23;;;;;;;16.40;12.10;;;16.40;51.90;;;;;;10521507;28;20199;-85
2022/03/26 16:25:25;;;;;;;18.70;12.10;;;16.30;48.60;;;;;;10508274;28;20208;-85
2022/03/26 16:30:29;;;;;;;14.87;11.63;;;16.30;50.10;;;;;;10497209;28;20235;-85
2022/03/26 16:35:33;;;;;;;15.50;12.57;;;16.20;51.50;;;;;;10474232;28;20211;-85
2022/03/26 16:40:38;;;;;;;14.90;13.10;;;16.30;47.70;;;;;;10481794;28;20189;-85
2022/03/26 16:45:40;;;;;;;15.17;11.37;;;16.30;47.40;;;;;;10490156;28;20300;-84
2022/03/26 16:50:44;;;;;;;12.83;11.27;;;16.20;47.50;;;;;;10503729;28;20216;-84
2022/03/26 16:55:46;;;;;;;15.27;11.67;;;16.30;46.90;;;;;;10489048;28;20715;-84
2022/03/26 17:00:51;;;;;;;13.87;11.23;;;16.20;51.40;;;;;;10467806;28;20204;-85
2022/03/26 17:05:57;;;;;;;13.20;11.80;;;16.10;52.50;;;;;;10490791;28;20699;-85
2022/03/26 17:11:00;;;;;;;14.20;10.20;;;15.90;52.40;;;;;;10494021;28;20597;-84
2022/03/26 17:16:02;;;;;;;12.60;10.77;;;15.80;51.20;;;;;;10496396;28;20227;-85
2022/03/26 17:21:05;;;;;;;14.80;10.63;;;15.60;52.10;;;;;;10487775;28;20198;-85
2022/03/26 17:26:08;;;;;;;12.93;10.17;;;15.50;54.10;;;;;;10483357;28;20657;-84
2022/03/26 17:31:10;;;;;;;13.20;10.27;;;15.30;56.30;;;;;;10480626;28;20220;-85
2022/03/26 17:36:14;;;;;;;13.37;10.03;;;15.20;57.90;;;;;;10509213;28;20222;-84
2022/03/26 17:41:16;;;;;;;14.50;11.67;;;15.00;55.30;;;;;;10505386;28;20263;-84
2022/03/26 17:46:19;;;;;;;12.77;9.93;;;15.00;51.60;;;;;;10490791;28;20270;-85
2022/03/26 17:51:22;;;;;;;11.83;10.20;;;15.00;51.30;;;;;;10496069;28;20239;-85
2022/03/26 17:56:26;;;;;;;10.57;9.37;;;15.00;51.10;;;;;;10475341;28;20220;-85
2022/03/26 18:01:32;;;;;;;14.00;9.87;;;14.90;51.60;;;;;;10482754;28;20587;-86
2022/03/26 18:06:36;;;;;;;18.47;11.87;;;14.90;50.40;;;;;;10470679;28;20319;-85
2022/03/26 18:11:38;;;;;;;18.97;12.77;;;14.80;50.10;;;;;;10468460;28;20204;-85
2022/03/26 18:16:40;;;;;;;20.43;17.50;;;14.60;51.00;;;;;;10489596;28;20243;-84
2022/03/26 18:21:44;;;;;;;18.50;14.30;;;14.50;50.60;;;;;;10476779;28;20276;-84
2022/03/26 18:26:46;;;;;;;12.97;11.47;;;14.30;50.40;;;;;;10487131;28;20227;-85
2022/03/26 18:31:48;;;;;;;16.33;11.83;;;14.20;50.30;;;;;;10466192;28;20567;-85
2022/03/26 18:36:55;;;;;;;15.03;11.70;;;14.10;50.40;;;;;;10485149;28;20236;-85
2022/03/26 18:41:57;;;;;;;12.93;11.07;;;14.00;50.50;;;;;;10507592;28;20222;-84
2022/03/26 18:47:00;;;;;;;12.70;10.53;;;13.80;51.30;;;;;;10490056;28;20224;-84
2022/03/26 18:52:04;;;;;;;19.40;15.40;;;13.80;51.30;;;;;;10514371;28;20216;-84
2022/03/26 18:57:06;;;;;;;24.30;17.63;;;13.60;51.30;;;;;;10492072;28;20213;-84
2022/03/26 19:02:17;;;;;;;18.10;14.83;;;13.50;51.70;;;;;;10495550;28;20224;-85
2022/03/26 19:07:20;;;;;;;20.73;13.77;;;13.50;52.30;;;;;;10482795;28;20311;-85
2022/03/26 19:12:24;;;;;;;29.33;21.23;;;13.40;52.90;;;;;;10484243;28;20220;-84
2022/03/26 19:17:34;;;;;;;17.70;13.30;;;13.30;53.30;;;;;;10513940;28;20226;-84
2022/03/26 19:22:37;;;;;;;20.90;13.70;;;13.20;53.10;;;;;;10515027;28;20279;-84
2022/03/26 19:27:40;;;;;;;18.37;13.87;;;13.10;54.00;;;;;;10497957;28;20689;-84
2022/03/26 19:32:43;;;;;;;21.60;15.53;;;13.10;54.10;;;;;;10472944;28;20228;-84
2022/03/26 19:37:47;;;;;;;17.37;12.10;;;13.10;54.20;;;;;;10508868;28;20228;-84
2022/03/26 19:42:52;;;;;;;28.53;22.00;;;13.00;54.40;;;;;;10480935;28;20199;-84
2022/03/26 19:47:55;;;;;;;24.13;18.47;;;12.90;54.90;;;;;;10514644;28;20323;-84
2022/03/26 19:53:05;;;;;;;19.97;15.30;;;12.80;55.20;;;;;;10480113;28;20351;-84
2022/03/26 19:58:10;;;;;;;20.00;14.40;;;12.80;55.10;;;;;;10475546;28;20235;-84
2022/03/26 20:03:12;;;;;;;25.90;17.73;;;12.60;55.40;;;;;;10467978;28;20200;-85
2022/03/26 20:08:23;;;;;;;19.80;14.00;;;12.60;55.60;;;;;;10482254;28;20236;-84
2022/03/26 20:13:28;;;;;;;31.97;19.97;;;12.50;55.50;;;;;;10483404;28;20687;-84
2022/03/26 20:18:41;;;;;;;20.27;13.73;;;12.50;56.30;;;;;;10476761;28;20768;-84
2022/03/26 20:23:44;;;;;;;20.30;12.13;;;12.40;56.00;;;;;;10473284;28;20354;-84
2022/03/26 20:28:46;;;;;;;24.97;15.77;;;12.30;56.20;;;;;;10491889;28;20221;-84
2022/03/26 20:39:09;;;;;;;28.70;13.73;;;12.10;56.40;;;;;;10485456;28;20228;-86
2022/03/26 20:44:11;;;;;;;19.87;14.87;;;12.00;57.10;;;;;;10456765;28;20274;-85
2022/03/26 20:49:14;;;;;;;20.37;11.90;;;12.00;56.90;;;;;;10472293;28;20224;-86
2022/03/26 20:54:18;;;;;;;18.80;12.90;;;11.90;57.80;;;;;;10472697;28;20212;-86
2022/03/26 20:59:26;;;;;;;22.23;13.50;;;11.80;57.60;;;;;;10490453;28;20311;-86
2022/03/26 21:04:29;;;;;;;15.73;12.37;;;11.70;58.10;;;;;;10478532;28;20227;-86
2022/03/26 21:09:33;;;;;;;22.33;13.83;;;11.60;59.00;;;;;;10468035;22;20222;-84
2022/03/26 21:14:35;;;;;;;20.53;13.40;;;11.60;59.60;;;;;;10409249;28;20217;-84
2022/03/26 21:19:37;;;;;;;16.60;11.93;;;11.60;59.20;;;;;;10403114;28;20217;-86
2022/03/26 21:30:00;;;;;;;18.90;12.53;;;11.50;59.40;;;;;;10422384;28;20323;-87
2022/03/26 21:35:03;;;;;;;21.50;13.07;;;11.40;60.00;;;;;;10399515;28;20612;-84
2022/03/26 21:40:08;;;;;;;19.20;12.03;;;11.30;60.20;;;;;;10371634;28;20225;-85
2022/03/26 21:45:10;;;;;;;18.20;12.07;;;11.30;60.00;;;;;;10369525;28;20255;-84
2022/03/26 21:50:12;;;;;;;16.27;12.03;;;11.30;60.50;;;;;;10375223;28;20701;-85
2022/03/26 21:55:16;;;;;;;15.13;11.80;;;11.20;60.50;;;;;;10364685;28;20267;-85
2022/03/26 22:00:19;;;;;;;22.80;13.13;;;11.20;61.10;;;;;;10380735;28;20222;-85
2022/03/26 22:05:22;;;;;;;21.03;13.47;;;11.10;61.30;;;;;;10375750;28;20681;-84
2022/03/26 22:10:26;;;;;;;22.63;15.00;;;11.10;61.50;;;;;;10371280;28;20225;-85
2022/03/26 22:15:28;;;;;;;15.97;12.60;;;11.00;62.00;;;;;;10385602;28;20634;-84
2022/03/26 22:20:31;;;;;;;16.80;10.90;;;11.00;62.90;;;;;;10413180;28;20289;-85
2022/03/26 22:25:34;;;;;;;16.67;11.97;;;10.90;62.70;;;;;;10396985;28;21312;-85
2022/03/26 22:30:36;;;;;;;13.77;12.20;;;10.90;62.60;;;;;;10431882;28;20218;-84
2022/03/26 22:35:39;;;;;;;17.50;13.00;;;10.90;61.90;;;;;;10372959;28;20232;-84
2022/03/26 22:40:43;;;;;;;18.63;12.40;;;10.80;62.70;;;;;;10399854;28;20214;-84
2022/03/26 22:45:46;;;;;;;17.23;12.00;;;10.70;64.20;;;;;;10411735;28;20246;-85
2022/03/26 22:50:48;;;;;;;22.23;13.57;;;10.70;65.40;;;;;;10374583;28;20670;-84
2022/03/26 22:55:51;;;;;;;15.90;11.80;;;10.70;64.20;;;;;;10417524;28;20225;-84
2022/03/26 23:01:20;;;;;;;21.40;12.67;;;10.70;64.30;;;;;;10367536;28;20290;-84
2022/03/26 23:06:22;;;;;;;17.90;11.37;;;10.70;63.70;;;;;;10386774;28;20242;-84
2022/03/26 23:11:25;;;;;;;17.33;12.23;;;10.70;63.70;;;;;;10378934;28;20316;-84
2022/03/26 23:16:27;;;;;;;17.00;12.10;;;10.60;64.20;;;;;;10392838;28;20230;-84
2022/03/26 23:21:30;;;;;;;21.30;13.50;;;10.50;63.70;;;;;;10406823;28;20305;-84
2022/03/26 23:26:33;;;;;;;18.83;11.30;;;10.40;65.80;;;;;;10372909;28;20231;-84
2022/03/26 23:31:36;;;;;;;19.37;11.80;;;10.40;66.30;;;;;;10374848;28;20235;-84
2022/03/26 23:36:38;;;;;;;18.17;12.10;;;10.30;65.20;;;;;;10405894;28;20222;-84
2022/03/26 23:41:41;;;;;;;17.87;11.70;;;10.30;66.60;;;;;;10374453;28;20313;-85
2022/03/26 23:46:44;;;;;;;16.90;11.50;;;10.30;66.40;;;;;;10423399;28;20218;-84
2022/03/26 23:51:46;;;;;;;18.90;11.43;;;10.30;68.00;;;;;;10376399;28;20213;-84
2022/03/26 23:56:50;;;;;;;23.13;12.23;;;10.40;67.60;;;;;;10355629;28;20254;-84
